createdAt,value
2022-12-27T00:04:58.430Z,1014.09
2022-12-27T00:19:59.504Z,1014.26
2022-12-27T00:35:00.740Z,1014.39
2022-12-27T00:50:02.232Z,1014.35
2022-12-27T01:05:02.865Z,1014.47
2022-12-27T01:20:03.056Z,1014.60
2022-12-27T01:35:03.107Z,1014.97
2022-12-27T01:50:03.751Z,1014.90
2022-12-27T02:05:04.433Z,1015.11
2022-12-27T02:20:04.973Z,1015.14
2022-12-27T02:35:05.404Z,1015.44
2022-12-27T02:50:05.868Z,1015.49
2022-12-27T03:05:07.783Z,1015.57
2022-12-27T03:20:09.633Z,1015.63
2022-12-27T03:35:09.792Z,1015.75
2022-12-27T03:50:10.474Z,1015.92
2022-12-27T04:05:11.580Z,1015.93
2022-12-27T04:20:11.704Z,1015.96
2022-12-27T04:35:12.290Z,1015.91
2022-12-27T04:50:12.923Z,1016.00
2022-12-27T05:05:13.532Z,1016.00
2022-12-27T05:20:14.154Z,1016.10
2022-12-27T05:35:14.757Z,1016.18
2022-12-27T05:50:15.154Z,1016.37
2022-12-27T06:05:17.520Z,1016.39
2022-12-27T06:20:18.457Z,1016.45
2022-12-27T06:35:19.080Z,1016.54
2022-12-27T06:50:19.674Z,1016.79
2022-12-27T07:05:20.357Z,1016.89
2022-12-27T07:20:22.183Z,1016.94
2022-12-27T07:35:22.847Z,1017.07
2022-12-27T07:50:23.910Z,1017.39
2022-12-27T08:05:27.872Z,1017.67
2022-12-27T08:20:28.896Z,1017.69
2022-12-27T08:35:54.109Z,1017.84
2022-12-27T08:50:34.879Z,1017.81
2022-12-27T09:05:41.383Z,1017.82
2022-12-27T09:20:41.615Z,1017.93
2022-12-27T09:35:42.688Z,1018.14
2022-12-27T09:50:44.339Z,1018.10
2022-12-27T10:13:46.576Z,1018.16
2022-12-27T10:28:47.357Z,1018.33
2022-12-27T10:43:48.862Z,1018.53
2022-12-27T10:58:56.598Z,1018.65
2022-12-27T11:13:56.145Z,1018.69
2022-12-27T11:28:56.668Z,1018.85
2022-12-27T11:43:58.565Z,1019.07
2022-12-27T11:58:59.172Z,1019.08
2022-12-27T12:13:59.524Z,1019.20
2022-12-27T12:29:00.723Z,1019.23
2022-12-27T12:44:01.647Z,1019.13
2022-12-27T12:59:02.740Z,1019.32
2022-12-27T13:14:02.385Z,1019.55
2022-12-27T13:29:02.491Z,1019.46
2022-12-27T13:44:02.876Z,1019.35
2022-12-27T13:59:03.297Z,1019.44
2022-12-27T14:14:03.941Z,1019.55
2022-12-27T14:29:04.537Z,1019.78
2022-12-27T14:44:05.208Z,1019.89
2022-12-27T14:59:05.576Z,1019.93
2022-12-27T15:14:06.083Z,1020.25
2022-12-27T15:29:06.683Z,1020.19
2022-12-27T15:44:07.316Z,1020.19
2022-12-27T15:59:08.431Z,1020.10
2022-12-27T16:14:09.550Z,1020.08
2022-12-27T16:29:10.196Z,1020.05
2022-12-27T16:44:11.329Z,1020.15
2022-12-27T16:59:12.494Z,1020.16
2022-12-27T17:14:13.777Z,1020.07
2022-12-27T17:29:14.806Z,1020.18
2022-12-27T17:44:14.923Z,1020.10
2022-12-27T17:59:16.842Z,1020.06
2022-12-27T18:14:17.411Z,1020.13
2022-12-27T18:29:18.551Z,1020.14
2022-12-27T18:44:24.769Z,1020.04
2022-12-27T18:59:25.585Z,1019.85
2022-12-27T19:14:28.243Z,1019.78
2022-12-27T19:29:28.377Z,1019.91
2022-12-27T19:44:29.164Z,1019.95
2022-12-27T19:59:29.593Z,1019.88
2022-12-27T20:14:30.244Z,1019.70
2022-12-27T20:29:30.856Z,1019.69
2022-12-27T20:44:31.013Z,1019.59
2022-12-27T20:59:31.682Z,1019.58
2022-12-27T21:14:33.231Z,1019.26
2022-12-27T21:29:34.387Z,1019.22
2022-12-27T21:44:36.295Z,1019.11
2022-12-27T21:59:36.944Z,1018.93
2022-12-27T22:14:38.076Z,1018.72
2022-12-27T22:29:38.193Z,1018.58
2022-12-27T22:44:38.854Z,1018.43
2022-12-27T22:59:39.486Z,1018.36
2022-12-27T23:14:41.364Z,1018.20
2022-12-27T23:29:42.168Z,1018.06
2022-12-27T23:44:42.674Z,1017.82
2022-12-27T23:59:43.856Z,1017.72
